createdAt,value
2022-12-17T00:00:47.946Z,-1.54
2022-12-17T00:03:33.229Z,-1.56
2022-12-17T00:06:18.269Z,-1.59
2022-12-17T00:09:03.334Z,-1.58
2022-12-17T00:11:48.400Z,-1.64
2022-12-17T00:14:33.180Z,-1.63
2022-12-17T00:17:18.170Z,-1.63
2022-12-17T00:20:03.012Z,-1.65
2022-12-17T00:22:47.851Z,-1.64
2022-12-17T00:25:32.759Z,-1.67
2022-12-17T00:28:17.953Z,-1.68
2022-12-17T00:31:09.699Z,-1.68
2022-12-17T00:33:55.315Z,-1.66
2022-12-17T00:36:41.446Z,-1.65
2022-12-17T00:39:26.656Z,-1.60
2022-12-17T00:42:11.665Z,-1.64
2022-12-17T00:44:56.776Z,-1.60
2022-12-17T00:47:41.703Z,-1.65
2022-12-17T00:50:27.392Z,-1.58
2022-12-17T00:53:13.017Z,-1.58
2022-12-17T00:55:58.442Z,-1.57
2022-12-17T00:58:43.318Z,-1.59
2022-12-17T01:01:29.250Z,-1.55
2022-12-17T01:04:14.595Z,-1.52
2022-12-17T01:06:59.714Z,-1.54
2022-12-17T01:09:48.583Z,-1.57
2022-12-17T01:12:33.716Z,-1.56
2022-12-17T01:15:18.647Z,-1.57
2022-12-17T01:18:03.598Z,-1.53
2022-12-17T01:20:48.769Z,-1.50
2022-12-17T01:23:34.407Z,-1.46
2022-12-17T01:26:20.856Z,-1.46
2022-12-17T01:29:05.773Z,-1.50
2022-12-17T01:31:51.031Z,-1.50
2022-12-17T01:34:36.379Z,-1.52
2022-12-17T01:37:21.980Z,-1.51
2022-12-17T01:40:07.274Z,-1.53
2022-12-17T01:42:57.511Z,-1.52
2022-12-17T01:45:42.599Z,-1.56
2022-12-17T01:48:32.356Z,-1.55
2022-12-17T01:51:17.583Z,-1.59
2022-12-17T01:54:08.528Z,-1.61
2022-12-17T01:56:56.376Z,-1.61
2022-12-17T01:59:46.038Z,-1.68
2022-12-17T02:02:31.406Z,-1.68
2022-12-17T02:05:16.894Z,-1.63
2022-12-17T02:08:08.171Z,-1.60
2022-12-17T02:11:12.630Z,-1.62
2022-12-17T02:14:01.448Z,-1.62
2022-12-17T02:17:03.868Z,-1.71
2022-12-17T02:19:48.987Z,-1.72
2022-12-17T02:22:56.342Z,-1.67
2022-12-17T02:25:51.164Z,-1.61
2022-12-17T02:28:37.345Z,-1.66
2022-12-17T02:31:24.287Z,-1.65
2022-12-17T02:34:09.877Z,-1.72
2022-12-17T02:36:55.078Z,-1.75
2022-12-17T02:39:48.035Z,-1.78
2022-12-17T02:42:33.252Z,-1.75
2022-12-17T02:45:19.899Z,-1.73
2022-12-17T02:48:06.301Z,-1.69
2022-12-17T02:50:51.337Z,-1.65
2022-12-17T02:53:40.118Z,-1.70
2022-12-17T02:56:25.174Z,-1.67
2022-12-17T02:59:10.367Z,-1.66
2022-12-17T03:01:56.984Z,-1.71
2022-12-17T03:04:42.415Z,-1.66
2022-12-17T03:07:27.818Z,-1.66
2022-12-17T03:10:12.993Z,-1.63
2022-12-17T03:13:00.954Z,-1.56
2022-12-17T03:15:46.244Z,-1.60
2022-12-17T03:18:32.682Z,-1.63
2022-12-17T03:21:17.946Z,-1.67
2022-12-17T03:24:02.903Z,-1.71
2022-12-17T03:26:47.951Z,-1.83
2022-12-17T03:29:32.821Z,-1.84
2022-12-17T03:32:17.743Z,-1.80
2022-12-17T03:35:02.563Z,-1.90
2022-12-17T03:37:47.567Z,-2.01
2022-12-17T03:40:32.672Z,-2.03
2022-12-17T03:43:24.584Z,-2.02
2022-12-17T03:46:12.931Z,-2.01
2022-12-17T03:48:58.204Z,-1.94
2022-12-17T03:51:43.136Z,-1.91
2022-12-17T03:54:28.059Z,-1.93
2022-12-17T03:57:16.028Z,-1.93
2022-12-17T04:00:01.461Z,-1.95
2022-12-17T04:02:46.575Z,-1.89
2022-12-17T04:05:31.656Z,-1.91
2022-12-17T04:08:16.823Z,-1.86
2022-12-17T04:11:01.996Z,-1.85
2022-12-17T04:13:47.594Z,-1.85
2022-12-17T04:16:33.374Z,-1.82
2022-12-17T04:19:18.515Z,-1.81
2022-12-17T04:22:03.757Z,-1.85
2022-12-17T04:24:48.575Z,-1.84
2022-12-17T04:27:33.599Z,-1.87
2022-12-17T04:30:18.940Z,-1.90
2022-12-17T04:33:04.278Z,-1.89
2022-12-17T04:35:49.461Z,-1.93
2022-12-17T04:38:34.600Z,-1.92
2022-12-17T04:41:19.999Z,-1.90
2022-12-17T04:44:04.917Z,-1.90
2022-12-17T04:46:50.219Z,-1.87
2022-12-17T04:49:35.371Z,-1.85
2022-12-17T04:52:20.779Z,-1.85
2022-12-17T04:55:06.068Z,-1.83
2022-12-17T04:57:51.238Z,-1.85
2022-12-17T05:00:36.427Z,-1.81
2022-12-17T05:03:25.725Z,-1.89
2022-12-17T05:06:10.873Z,-1.91
2022-12-17T05:08:55.883Z,-1.89
2022-12-17T05:11:41.292Z,-1.85
2022-12-17T05:14:26.457Z,-1.91
2022-12-17T05:17:11.392Z,-1.96
2022-12-17T05:19:56.689Z,-1.98
2022-12-17T05:22:41.667Z,-1.95
2022-12-17T05:25:27.001Z,-1.94
2022-12-17T05:28:12.139Z,-1.88
2022-12-17T05:31:00.110Z,-1.92
2022-12-17T05:33:45.673Z,-1.93
2022-12-17T05:36:30.878Z,-1.98
2022-12-17T05:39:15.768Z,-1.97
2022-12-17T05:42:00.623Z,-1.94
2022-12-17T05:44:45.770Z,-1.95
2022-12-17T05:47:31.090Z,-1.95
2022-12-17T05:50:23.758Z,-1.94
2022-12-17T05:53:08.578Z,-1.96
2022-12-17T05:55:53.787Z,-1.99
2022-12-17T05:58:39.095Z,-1.99
2022-12-17T06:01:24.862Z,-1.99
2022-12-17T06:04:10.109Z,-1.95
2022-12-17T06:06:55.404Z,-1.98
2022-12-17T06:09:40.712Z,-1.99
2022-12-17T06:12:25.988Z,-2.02
2022-12-17T06:15:11.102Z,-2.01
2022-12-17T06:17:56.172Z,-1.98
2022-12-17T06:20:41.055Z,-2.07
2022-12-17T06:23:29.286Z,-1.99
2022-12-17T06:26:15.300Z,-1.96
2022-12-17T06:29:00.924Z,-1.91
2022-12-17T06:31:46.528Z,-1.90
2022-12-17T06:34:31.693Z,-1.96
2022-12-17T06:37:16.874Z,-2.01
2022-12-17T06:40:01.750Z,-1.95
2022-12-17T06:42:46.939Z,-1.88
2022-12-17T06:45:32.123Z,-1.85
2022-12-17T06:48:25.850Z,-2.04
2022-12-17T06:51:14.596Z,-1.94
2022-12-17T06:54:00.800Z,-1.95
2022-12-17T06:56:46.033Z,-1.95
2022-12-17T06:59:31.145Z,-2.00
2022-12-17T07:02:16.271Z,-2.03
2022-12-17T07:05:01.578Z,-1.97
2022-12-17T07:07:46.704Z,-1.95
2022-12-17T07:10:31.641Z,-1.98
2022-12-17T07:13:26.190Z,-1.95
2022-12-17T07:16:11.969Z,-1.93
2022-12-17T07:18:57.768Z,-1.97
2022-12-17T07:21:43.057Z,-2.00
2022-12-17T07:24:28.338Z,-1.92
2022-12-17T07:27:13.258Z,-1.94
2022-12-17T07:29:58.407Z,-1.86
2022-12-17T07:32:43.559Z,-1.83
2022-12-17T07:35:28.635Z,-1.83
2022-12-17T07:38:18.386Z,-1.76
2022-12-17T07:41:04.181Z,-1.75
2022-12-17T07:43:52.937Z,-1.71
2022-12-17T07:46:38.544Z,-1.70
2022-12-17T07:49:25.895Z,-1.66
2022-12-17T07:52:12.079Z,-1.64
2022-12-17T07:54:57.334Z,-1.63
2022-12-17T07:57:42.865Z,-1.62
2022-12-17T08:00:28.798Z,-1.63
2022-12-17T08:03:17.963Z,-1.65
2022-12-17T08:06:03.253Z,-1.67
2022-12-17T08:08:48.636Z,-1.78
2022-12-17T08:11:33.859Z,-1.74
2022-12-17T08:14:18.844Z,-1.78
2022-12-17T08:17:04.097Z,-1.76
2022-12-17T08:19:49.353Z,-1.77
2022-12-17T08:22:34.380Z,-1.74
2022-12-17T08:25:19.492Z,-1.68
2022-12-17T08:28:07.388Z,-1.67
2022-12-17T08:30:55.842Z,-1.65
2022-12-17T08:33:41.264Z,-1.68
2022-12-17T08:36:27.660Z,-1.68
2022-12-17T08:39:12.876Z,-1.65
2022-12-17T08:42:03.940Z,-1.63
2022-12-17T08:44:49.671Z,-1.71
2022-12-17T08:47:34.656Z,-1.70
2022-12-17T08:50:19.787Z,-1.72
2022-12-17T08:53:05.040Z,-1.71
2022-12-17T08:55:49.991Z,-1.73
2022-12-17T08:58:35.068Z,-1.75
2022-12-17T09:01:20.227Z,-1.68
2022-12-17T09:04:05.652Z,-1.62
2022-12-17T09:06:52.084Z,-1.66
2022-12-17T09:09:37.381Z,-1.62
2022-12-17T09:12:22.622Z,-1.63
2022-12-17T09:15:07.895Z,-1.58
2022-12-17T09:17:53.083Z,-1.55
2022-12-17T09:20:39.098Z,-1.71
2022-12-17T09:23:24.231Z,-1.66
2022-12-17T09:26:16.412Z,-1.69
2022-12-17T09:29:01.598Z,-1.62
2022-12-17T09:31:46.723Z,-1.67
2022-12-17T09:34:31.717Z,-1.72
2022-12-17T09:37:19.210Z,-1.77
2022-12-17T09:40:04.560Z,-1.78
2022-12-17T09:43:10.582Z,-1.76
2022-12-17T09:46:09.522Z,-1.72
2022-12-17T09:49:01.533Z,-1.68
2022-12-17T09:51:47.748Z,-1.60
2022-12-17T09:55:01.460Z,-1.62
2022-12-17T09:57:49.519Z,-1.59
2022-12-17T10:00:42.063Z,-1.56
2022-12-17T10:03:45.901Z,-1.52
2022-12-17T10:06:35.781Z,-1.43
2022-12-17T10:09:28.737Z,-1.39
2022-12-17T10:12:14.394Z,-1.36
2022-12-17T10:14:59.623Z,-1.42
2022-12-17T10:17:44.822Z,-1.49
2022-12-17T10:20:57.535Z,-1.53
2022-12-17T10:23:44.226Z,-1.42
2022-12-17T10:26:36.138Z,-1.37
2022-12-17T10:29:30.042Z,-1.40
2022-12-17T10:32:18.704Z,-1.38
2022-12-17T10:35:05.890Z,-1.37
2022-12-17T10:37:53.337Z,-1.28
2022-12-17T10:40:47.658Z,-1.29
2022-12-17T10:43:44.033Z,-1.27
2022-12-17T10:46:29.303Z,-1.25
2022-12-17T10:49:29.930Z,-1.24
2022-12-17T10:52:25.439Z,-1.23
2022-12-17T10:55:16.191Z,-1.23
2022-12-17T10:58:01.783Z,-1.26
2022-12-17T11:00:56.689Z,-1.37
2022-12-17T11:03:46.398Z,-1.39
2022-12-17T11:06:37.478Z,-1.41
2022-12-17T11:09:33.666Z,-1.45
2022-12-17T11:12:19.846Z,-1.41
2022-12-17T11:15:09.673Z,-1.38
2022-12-17T11:17:56.034Z,-1.34
2022-12-17T11:20:43.562Z,-1.30
2022-12-17T11:23:36.720Z,-1.35
2022-12-17T11:26:26.530Z,-1.38
2022-12-17T11:29:11.724Z,-1.34
2022-12-17T11:32:23.620Z,-1.38
2022-12-17T11:35:43.259Z,-1.41
2022-12-17T11:38:52.528Z,-1.52
2022-12-17T11:42:00.962Z,-1.61
2022-12-17T11:44:59.291Z,-1.57
2022-12-17T11:47:57.544Z,-1.54
2022-12-17T11:50:51.988Z,-1.59
2022-12-17T11:53:51.083Z,-1.58
2022-12-17T11:56:46.276Z,-1.73
2022-12-17T11:59:52.859Z,-1.67
2022-12-17T12:02:58.267Z,-1.69
2022-12-17T12:06:11.458Z,-1.69
2022-12-17T12:09:02.979Z,-1.59
2022-12-17T12:11:57.730Z,-1.59
2022-12-17T12:15:01.866Z,-1.57
2022-12-17T12:18:05.562Z,-1.56
2022-12-17T12:21:24.885Z,-1.57
2022-12-17T12:24:27.015Z,-1.62
2022-12-17T12:27:21.799Z,-1.57
2022-12-17T12:30:29.088Z,-1.53
2022-12-17T12:33:22.918Z,-1.50
2022-12-17T12:36:19.175Z,-1.48
2022-12-17T12:39:05.325Z,-1.47
2022-12-17T12:42:09.417Z,-1.47
2022-12-17T12:45:19.169Z,-1.46
2022-12-17T12:48:25.571Z,-1.43
2022-12-17T12:51:41.880Z,-1.49
2022-12-17T12:55:02.910Z,-1.50
2022-12-17T12:57:50.754Z,-1.53
2022-12-17T13:00:56.305Z,-1.53
2022-12-17T13:03:49.733Z,-1.55
2022-12-17T13:06:39.997Z,-1.89
2022-12-17T13:09:15.776Z,-1.88
2022-12-17T13:12:00.174Z,-1.88
2022-12-17T13:14:29.163Z,-1.76
2022-12-17T13:17:08.061Z,-1.70
2022-12-17T13:19:47.346Z,-1.81
2022-12-17T13:22:23.781Z,-1.90
2022-12-17T13:24:52.860Z,-1.84
2022-12-17T13:27:31.193Z,-1.83
2022-12-17T13:29:59.859Z,-1.79
2022-12-17T13:32:33.994Z,-1.81
2022-12-17T13:35:12.779Z,-1.88
2022-12-17T13:37:59.974Z,-1.85
2022-12-17T13:40:45.458Z,-1.81
2022-12-17T13:43:18.028Z,-1.80
2022-12-17T13:45:44.872Z,-1.76
2022-12-17T13:48:21.337Z,-1.81
2022-12-17T13:50:59.979Z,-1.88
2022-12-17T13:53:27.615Z,-1.85
2022-12-17T13:55:57.044Z,-1.90
2022-12-17T13:58:26.927Z,-1.89
2022-12-17T14:01:14.650Z,-1.88
2022-12-17T14:06:37.848Z,-1.95
2022-12-17T14:09:04.808Z,-1.98
2022-12-17T14:11:50.455Z,-1.98
2022-12-17T14:14:31.360Z,-2.03
2022-12-17T14:16:57.889Z,-2.17
2022-12-17T14:19:24.776Z,-2.14
2022-12-17T14:21:51.621Z,-2.13
2022-12-17T14:24:23.189Z,-2.14
2022-12-17T14:26:50.977Z,-2.13
2022-12-17T14:29:26.019Z,-2.09
2022-12-17T14:31:57.729Z,-2.04
2022-12-17T14:34:24.926Z,-2.04
2022-12-17T14:37:18.490Z,-2.13
2022-12-17T14:39:46.821Z,-2.14
2022-12-17T14:42:26.441Z,-2.15
2022-12-17T14:44:55.802Z,-2.12
2022-12-17T14:47:30.053Z,-2.08
2022-12-17T14:50:11.836Z,-2.11
2022-12-17T14:52:42.645Z,-2.08
2022-12-17T14:55:35.389Z,-2.16
2022-12-17T14:58:14.061Z,-2.25
2022-12-17T15:00:43.386Z,-2.34
2022-12-17T15:03:11.919Z,-2.33
2022-12-17T15:05:38.689Z,-2.30
2022-12-17T15:08:05.656Z,-2.30
2022-12-17T15:10:32.182Z,-2.26
2022-12-17T15:12:58.720Z,-2.23
2022-12-17T15:15:25.250Z,-2.26
2022-12-17T15:17:51.815Z,-2.42
2022-12-17T15:20:20.720Z,-2.42
2022-12-17T15:22:47.876Z,-2.50
2022-12-17T15:25:16.117Z,-2.56
2022-12-17T15:27:42.718Z,-2.65
2022-12-17T15:30:19.226Z,-2.61
2022-12-17T15:32:46.187Z,-2.60
2022-12-17T15:35:13.220Z,-2.58
2022-12-17T15:37:39.855Z,-2.52
2022-12-17T15:40:07.209Z,-2.49
2022-12-17T15:42:52.465Z,-2.48
2022-12-17T15:45:19.453Z,-2.49
2022-12-17T15:47:46.047Z,-2.49
2022-12-17T15:50:12.590Z,-2.42
2022-12-17T15:52:39.078Z,-2.44
2022-12-17T15:55:06.004Z,-2.58
2022-12-17T15:57:32.538Z,-2.66
2022-12-17T15:59:59.174Z,-2.62
2022-12-17T16:02:26.025Z,-2.61
2022-12-17T16:04:52.807Z,-2.59
2022-12-17T16:07:19.323Z,-2.63
2022-12-17T16:09:45.863Z,-2.58
2022-12-17T16:12:12.418Z,-2.68
2022-12-17T16:14:38.908Z,-2.80
2022-12-17T16:17:05.437Z,-2.77
2022-12-17T16:19:31.995Z,-2.71
2022-12-17T16:21:58.534Z,-2.77
2022-12-17T16:24:25.047Z,-2.74
2022-12-17T16:26:51.579Z,-2.79
2022-12-17T16:29:18.148Z,-2.72
2022-12-17T16:31:46.107Z,-2.73
2022-12-17T16:34:13.279Z,-2.70
2022-12-17T16:36:39.977Z,-2.68
2022-12-17T16:39:06.634Z,-2.63
2022-12-17T16:41:33.602Z,-2.62
2022-12-17T16:44:00.829Z,-2.66
2022-12-17T16:46:32.750Z,-2.64
2022-12-17T16:49:04.545Z,-2.77
2022-12-17T16:51:31.088Z,-2.72
2022-12-17T16:53:58.237Z,-2.69
2022-12-17T16:56:28.505Z,-2.92
2022-12-17T16:58:55.453Z,-2.82
2022-12-17T17:01:28.002Z,-2.82
2022-12-17T17:03:55.431Z,-2.87
2022-12-17T17:06:22.679Z,-2.90
2022-12-17T17:08:49.558Z,-2.88
2022-12-17T17:11:21.244Z,-3.08
2022-12-17T17:13:49.746Z,-3.12
2022-12-17T17:16:17.642Z,-3.18
2022-12-17T17:18:44.241Z,-3.24
2022-12-17T17:21:23.388Z,-3.17
2022-12-17T17:23:53.482Z,-3.12
2022-12-17T17:26:24.327Z,-3.15
2022-12-17T17:28:51.860Z,-3.27
2022-12-17T17:31:18.816Z,-3.32
2022-12-17T17:33:48.656Z,-3.31
2022-12-17T17:36:19.504Z,-3.35
2022-12-17T17:38:46.428Z,-3.41
2022-12-17T17:41:15.585Z,-3.32
2022-12-17T17:43:42.225Z,-3.32
2022-12-17T17:46:11.720Z,-3.39
2022-12-17T17:48:38.615Z,-3.37
2022-12-17T17:51:29.495Z,-3.38
2022-12-17T17:54:09.641Z,-3.30
2022-12-17T17:56:41.315Z,-3.31
2022-12-17T17:59:13.248Z,-3.29
2022-12-17T18:01:42.616Z,-3.36
2022-12-17T18:04:15.304Z,-3.25
2022-12-17T18:07:02.535Z,-3.38
2022-12-17T18:09:30.085Z,-3.41
2022-12-17T18:11:56.618Z,-3.68
2022-12-17T18:14:23.172Z,-3.72
2022-12-17T18:16:49.756Z,-3.60
2022-12-17T18:19:19.718Z,-3.59
2022-12-17T18:21:47.406Z,-3.59
2022-12-17T18:24:19.583Z,-3.63
2022-12-17T18:26:47.983Z,-3.74
2022-12-17T18:29:16.801Z,-3.69
2022-12-17T18:31:48.489Z,-3.78
2022-12-17T18:34:20.547Z,-3.84
2022-12-17T18:36:48.244Z,-3.71
2022-12-17T18:39:16.038Z,-3.88
2022-12-17T18:42:02.214Z,-3.72
2022-12-17T18:44:29.637Z,-3.69
2022-12-17T18:46:56.311Z,-3.69
2022-12-17T18:49:26.665Z,-3.81
2022-12-17T18:51:54.227Z,-3.80
2022-12-17T18:54:23.198Z,-3.68
2022-12-17T18:57:01.051Z,-3.66
2022-12-17T18:59:29.700Z,-3.66
2022-12-17T19:01:56.648Z,-3.66
2022-12-17T19:04:23.973Z,-3.68
2022-12-17T19:06:53.508Z,-3.76
2022-12-17T19:09:23.483Z,-3.83
2022-12-17T19:11:50.791Z,-3.93
2022-12-17T19:14:17.967Z,-3.88
2022-12-17T19:16:45.139Z,-3.83
2022-12-17T19:19:13.093Z,-3.68
2022-12-17T19:21:40.172Z,-3.85
2022-12-17T19:24:09.081Z,-3.85
2022-12-17T19:26:35.808Z,-3.86
2022-12-17T19:29:03.051Z,-3.82
2022-12-17T19:31:31.375Z,-4.29
2022-12-17T19:33:59.985Z,-4.20
2022-12-17T19:36:28.736Z,-4.08
2022-12-17T19:38:57.526Z,-3.99
2022-12-17T19:41:25.336Z,-3.99
2022-12-17T19:43:57.028Z,-3.94
2022-12-17T19:46:24.998Z,-3.95
2022-12-17T19:48:52.514Z,-4.04
2022-12-17T19:51:22.292Z,-4.10
2022-12-17T19:53:49.997Z,-4.20
2022-12-17T19:56:27.196Z,-4.29
2022-12-17T19:59:00.902Z,-4.24
2022-12-17T20:01:32.589Z,-4.21
2022-12-17T20:03:59.911Z,-4.23
2022-12-17T20:06:29.676Z,-4.27
2022-12-17T20:08:58.150Z,-4.22
2022-12-17T20:11:33.959Z,-4.20
2022-12-17T20:14:01.763Z,-4.48
2022-12-17T20:16:30.464Z,-4.57
2022-12-17T20:18:59.655Z,-4.69
2022-12-17T20:21:26.204Z,-4.76
2022-12-17T20:23:52.785Z,-4.59
2022-12-17T20:26:19.409Z,-4.48
2022-12-17T20:28:46.291Z,-4.49
2022-12-17T20:31:13.127Z,-4.55
2022-12-17T20:33:39.776Z,-4.40
2022-12-17T20:36:12.654Z,-4.32
2022-12-17T20:38:39.613Z,-4.31
2022-12-17T20:41:27.876Z,-4.37
2022-12-17T20:43:56.221Z,-4.33
2022-12-17T20:46:24.255Z,-4.42
2022-12-17T20:48:50.839Z,-4.34
2022-12-17T20:51:22.699Z,-4.36
2022-12-17T20:53:49.448Z,-4.37
2022-12-17T20:56:17.812Z,-4.37
2022-12-17T20:58:44.568Z,-4.41
2022-12-17T21:01:12.964Z,-4.47
2022-12-17T21:03:39.975Z,-4.50
2022-12-17T21:06:12.302Z,-4.60
2022-12-17T21:08:42.396Z,-4.54
2022-12-17T21:11:13.123Z,-4.43
2022-12-17T21:13:39.736Z,-4.44
2022-12-17T21:16:10.797Z,-4.36
2022-12-17T21:18:37.707Z,-4.54
2022-12-17T21:21:07.531Z,-4.41
2022-12-17T21:23:36.256Z,-4.37
2022-12-17T21:26:09.940Z,-4.37
2022-12-17T21:28:38.381Z,-4.49
2022-12-17T21:31:05.759Z,-4.49
2022-12-17T21:33:32.382Z,-4.61
2022-12-17T21:36:01.172Z,-4.73
2022-12-17T21:38:34.279Z,-4.70
2022-12-17T21:41:06.557Z,-4.72
2022-12-17T21:43:34.243Z,-5.03
2022-12-17T21:46:01.021Z,-5.05
2022-12-17T21:48:27.675Z,-5.03
2022-12-17T21:50:54.431Z,-5.20
2022-12-17T21:53:21.362Z,-5.07
2022-12-17T21:55:48.474Z,-5.00
2022-12-17T21:58:15.534Z,-4.95
2022-12-17T22:00:42.644Z,-4.84
2022-12-17T22:03:09.197Z,-4.80
2022-12-17T22:05:37.432Z,-4.95
2022-12-17T22:08:04.973Z,-5.06
2022-12-17T22:10:42.355Z,-5.05
2022-12-17T22:13:34.162Z,-5.08
2022-12-17T22:16:01.282Z,-5.05
2022-12-17T22:18:27.926Z,-5.02
2022-12-17T22:20:59.377Z,-4.88
2022-12-17T22:23:25.981Z,-4.91
2022-12-17T22:25:52.857Z,-4.92
2022-12-17T22:28:19.375Z,-5.05
2022-12-17T22:31:04.675Z,-5.07
2022-12-17T22:34:10.316Z,-4.98
2022-12-17T22:38:23.524Z,-4.97
2022-12-17T22:42:31.025Z,-5.11
2022-12-17T22:44:37.196Z,-5.19
2022-12-17T22:45:10.183Z,-5.12
2022-12-17T22:47:37.907Z,-5.17
2022-12-17T22:50:04.742Z,-5.21
2022-12-17T22:52:31.940Z,-5.19
2022-12-17T22:54:59.149Z,-5.16
2022-12-17T22:57:36.255Z,-5.40
2022-12-17T23:00:16.805Z,-5.26
2022-12-17T23:02:43.463Z,-5.19
2022-12-17T23:05:10.021Z,-5.14
2022-12-17T23:07:36.634Z,-5.06
2022-12-17T23:10:04.939Z,-5.20
2022-12-17T23:12:50.054Z,-5.17
2022-12-17T23:15:19.878Z,-5.66
2022-12-17T23:17:46.494Z,-5.66
2022-12-17T23:20:14.143Z,-5.76
2022-12-17T23:22:40.727Z,-5.58
2022-12-17T23:25:08.011Z,-5.61
2022-12-17T23:27:34.566Z,-5.71
2022-12-17T23:30:01.190Z,-5.80
2022-12-17T23:32:27.835Z,-5.81
2022-12-17T23:34:54.387Z,-5.82
2022-12-17T23:37:20.908Z,-5.86
2022-12-17T23:39:47.408Z,-5.76
2022-12-17T23:42:13.940Z,-5.85
2022-12-17T23:44:40.504Z,-5.76
2022-12-17T23:47:07.020Z,-5.82
2022-12-17T23:49:33.511Z,-5.72
2022-12-17T23:52:00.038Z,-5.66
2022-12-17T23:54:26.604Z,-5.62
2022-12-17T23:56:53.138Z,-5.61
2022-12-17T23:59:19.705Z,-5.54
